Time;durP1;ratioP1;P1;durP2;ratioP2;P2;SDS_P1;SDS_P2;PMS_P1;PMS_P2;Temp;Humidity;BMP_temperature;BMP_pressure;BME280_temperature;BME280_humidity;BME280_pressure;Samples;Min_cycle;Max_cycle;Signal;HPM_P1;HPM_P2
2024/04/05 00:02:13;;;;;;;41.42;5.90;;;;;;;;;;5133930;28;20020;-56
2024/04/05 00:04:38;;;;;;;24.10;5.00;;;;;;;;;;5134904;28;20036;-58
2024/04/05 00:07:04;;;;;;;33.97;6.43;;;;;;;;;;5134911;28;20031;-56
2024/04/05 00:09:29;;;;;;;32.30;4.68;;;;;;;;;;5134754;28;20050;-58
2024/04/05 00:11:55;;;;;;;27.93;6.13;;;;;;;;;;5134721;28;20071;-57
2024/04/05 00:14:20;;;;;;;31.50;5.47;;;;;;;;;;5130960;28;20032;-56
2024/04/05 00:16:46;;;;;;;23.17;3.75;;;;;;;;;;5118861;28;20028;-57
2024/04/05 00:19:11;;;;;;;25.95;4.60;;;;;;;;;;5135167;28;20024;-57
2024/04/05 00:21:37;;;;;;;37.30;5.57;;;;;;;;;;5134987;28;20032;-57
2024/04/05 00:24:02;;;;;;;38.35;5.93;;;;;;;;;;5134465;28;20130;-56
2024/04/05 00:26:28;;;;;;;27.42;5.28;;;;;;;;;;5138463;28;20024;-58
2024/04/05 00:28:53;;;;;;;28.80;6.97;;;;;;;;;;5138951;28;20100;-58
2024/04/05 00:31:19;;;;;;;26.73;5.03;;;;;;;;;;5138972;28;20032;-56
2024/04/05 00:33:44;;;;;;;33.57;5.90;;;;;;;;;;5138563;28;20095;-56
2024/04/05 00:36:11;;;;;;;30.05;4.78;;;;;;;;;;5134471;28;20027;-56
2024/04/05 00:38:36;;;;;;;26.05;4.40;;;;;;;;;;5125964;28;20046;-56
2024/04/05 00:41:02;;;;;;;32.08;5.05;;;;;;;;;;5138797;28;20023;-60
2024/04/05 00:43:28;;;;;;;34.25;5.57;;;;;;;;;;5132547;28;20036;-59
2024/04/05 00:45:54;;;;;;;31.70;5.33;;;;;;;;;;5130682;28;20035;-58
2024/04/05 00:48:21;;;;;;;35.87;5.57;;;;;;;;;;5137846;28;20026;-57
2024/04/05 00:50:49;;;;;;;36.28;5.35;;;;;;;;;;5130198;28;20261;-58
2024/04/05 00:53:16;;;;;;;33.93;5.30;;;;;;;;;;5128411;28;20037;-58
2024/04/05 00:55:42;;;;;;;33.97;5.27;;;;;;;;;;5136938;28;20332;-55
2024/04/05 00:58:08;;;;;;;34.05;6.50;;;;;;;;;;5138291;28;20250;-57
2024/04/05 01:00:34;;;;;;;34.58;6.97;;;;;;;;;;5133176;28;20070;-57
2024/04/05 01:02:59;;;;;;;28.65;4.47;;;;;;;;;;5137976;28;20019;-58
2024/04/05 01:05:25;;;;;;;35.60;5.28;;;;;;;;;;5128815;28;20028;-57
2024/04/05 01:07:52;;;;;;;31.63;5.00;;;;;;;;;;5138529;28;20047;-58
2024/04/05 01:10:17;;;;;;;40.80;5.50;;;;;;;;;;5138148;28;20278;-57
2024/04/05 01:12:43;;;;;;;50.93;8.07;;;;;;;;;;5133031;28;20028;-58
2024/04/05 01:15:09;;;;;;;31.42;5.20;;;;;;;;;;5126412;28;20286;-56
2024/04/05 01:17:35;;;;;;;37.58;6.35;;;;;;;;;;5125650;28;20036;-56
2024/04/05 01:20:02;;;;;;;27.80;5.03;;;;;;;;;;5137533;28;20024;-57
2024/04/05 01:22:30;;;;;;;20.30;5.13;;;;;;;;;;5125724;28;20035;-58
2024/04/05 01:24:55;;;;;;;39.23;5.50;;;;;;;;;;5135004;28;20273;-59
2024/04/05 01:27:21;;;;;;;32.00;5.20;;;;;;;;;;5128204;28;20264;-57
2024/04/05 01:29:46;;;;;;;38.10;6.00;;;;;;;;;;5137706;28;20096;-58
2024/04/05 01:32:12;;;;;;;28.60;4.60;;;;;;;;;;5137628;28;20061;-56
2024/04/05 01:34:37;;;;;;;30.42;5.07;;;;;;;;;;5132117;28;20294;-59
2024/04/05 01:37:03;;;;;;;30.23;4.93;;;;;;;;;;5130619;28;20078;-56
2024/04/05 01:39:29;;;;;;;36.15;6.93;;;;;;;;;;5137420;28;20027;-58
2024/04/05 01:41:54;;;;;;;23.85;5.10;;;;;;;;;;5130705;28;20027;-58
2024/04/05 01:44:20;;;;;;;48.72;7.53;;;;;;;;;;5135308;28;20039;-57
2024/04/05 01:46:46;;;;;;;26.88;6.15;;;;;;;;;;5126678;28;20115;-58
2024/04/05 01:49:11;;;;;;;29.05;4.97;;;;;;;;;;5137345;28;20043;-59
2024/04/05 01:51:38;;;;;;;30.92;5.47;;;;;;;;;;5123912;28;20048;-55
2024/04/05 01:54:04;;;;;;;30.50;5.43;;;;;;;;;;5136822;28;20027;-56
2024/04/05 01:56:29;;;;;;;30.00;5.33;;;;;;;;;;5133127;28;20280;-57
2024/04/05 01:58:54;;;;;;;41.30;6.03;;;;;;;;;;5136974;28;20031;-59
2024/04/05 02:01:20;;;;;;;42.00;5.95;;;;;;;;;;5134459;28;20028;-57
2024/04/05 02:03:46;;;;;;;35.08;5.35;;;;;;;;;;5130889;28;20023;-55
2024/04/05 02:06:12;;;;;;;40.40;6.60;;;;;;;;;;5137079;28;20034;-56
2024/04/05 02:08:38;;;;;;;21.63;5.30;;;;;;;;;;5136936;28;20043;-55
2024/04/05 02:11:05;;;;;;;32.10;5.80;;;;;;;;;;5130214;28;20039;-58
2024/04/05 02:13:30;;;;;;;25.27;4.72;;;;;;;;;;5133521;28;20664;-59
2024/04/05 02:15:56;;;;;;;35.42;4.80;;;;;;;;;;5136758;28;20069;-58
2024/04/05 02:18:22;;;;;;;38.15;5.95;;;;;;;;;;5137008;28;20031;-56
2024/04/05 02:20:53;;;;;;;28.17;6.63;;;;;;;;;;5133249;28;20051;-57
2024/04/05 02:23:19;;;;;;;33.17;4.83;;;;;;;;;;5133956;28;20051;-58
2024/04/05 02:25:44;;;;;;;35.53;5.97;;;;;;;;;;5118451;28;20287;-59
2024/04/05 02:28:10;;;;;;;29.50;5.38;;;;;;;;;;5136611;28;20030;-57
2024/04/05 02:30:38;;;;;;;32.92;4.60;;;;;;;;;;5135010;28;20027;-56
2024/04/05 02:33:03;;;;;;;36.63;5.17;;;;;;;;;;5127979;28;20051;-58
2024/04/05 02:35:29;;;;;;;26.60;4.60;;;;;;;;;;5130696;28;20269;-57
2024/04/05 02:37:54;;;;;;;31.30;5.82;;;;;;;;;;5130923;28;20040;-58
2024/04/05 02:40:20;;;;;;;32.90;4.97;;;;;;;;;;5136460;28;20023;-59
2024/04/05 02:42:45;;;;;;;27.98;5.88;;;;;;;;;;5130384;28;20024;-55
2024/04/05 02:45:10;;;;;;;21.13;4.30;;;;;;;;;;5123723;28;20100;-56
2024/04/05 02:47:36;;;;;;;32.20;6.03;;;;;;;;;;5122082;28;20028;-58
2024/04/05 02:50:02;;;;;;;36.40;6.35;;;;;;;;;;5136357;28;20051;-58
2024/04/05 02:52:28;;;;;;;30.58;5.30;;;;;;;;;;5122540;28;20051;-59
2024/04/05 02:54:53;;;;;;;26.90;6.43;;;;;;;;;;5122931;28;20023;-58
2024/04/05 02:57:18;;;;;;;31.13;5.40;;;;;;;;;;5122657;28;20068;-58
2024/04/05 02:59:44;;;;;;;31.37;4.93;;;;;;;;;;5136077;28;20271;-54
2024/04/05 03:02:09;;;;;;;33.10;5.72;;;;;;;;;;5135540;28;20260;-58
2024/04/05 03:04:35;;;;;;;35.97;5.90;;;;;;;;;;5122387;28;20020;-57
2024/04/05 03:07:00;;;;;;;35.33;5.47;;;;;;;;;;5122143;28;20100;-57
2024/04/05 03:09:26;;;;;;;31.70;4.93;;;;;;;;;;5135838;28;20291;-58
2024/04/05 03:11:51;;;;;;;28.37;5.70;;;;;;;;;;5125734;28;20039;-58
2024/04/05 03:14:17;;;;;;;27.08;6.00;;;;;;;;;;5130226;28;20039;-59
2024/04/05 03:16:44;;;;;;;38.03;5.70;;;;;;;;;;5127691;28;20040;-58
2024/04/05 03:19:10;;;;;;;30.97;5.77;;;;;;;;;;5122349;28;20085;-58
2024/04/05 03:21:35;;;;;;;28.88;5.43;;;;;;;;;;5128210;28;20273;-59
2024/04/05 03:24:01;;;;;;;37.92;5.85;;;;;;;;;;5122097;28;20028;-59
2024/04/05 03:26:27;;;;;;;36.33;5.88;;;;;;;;;;5135664;28;20060;-59
2024/04/05 03:28:52;;;;;;;39.65;6.43;;;;;;;;;;5135459;28;20095;-57
2024/04/05 03:31:18;;;;;;;22.90;5.45;;;;;;;;;;5117968;28;20027;-59
2024/04/05 03:33:43;;;;;;;34.50;6.27;;;;;;;;;;5134985;28;20044;-57
2024/04/05 03:36:09;;;;;;;30.80;5.00;;;;;;;;;;5133773;28;20031;-60
2024/04/05 03:38:34;;;;;;;46.55;6.45;;;;;;;;;;5116965;28;20058;-58
2024/04/05 03:41:04;;;;;;;24.38;5.70;;;;;;;;;;5124236;28;20063;-54
2024/04/05 03:43:30;;;;;;;46.73;6.93;;;;;;;;;;5134521;28;20035;-57
2024/04/05 03:45:56;;;;;;;29.98;6.68;;;;;;;;;;5129298;28;20282;-58
2024/04/05 03:48:21;;;;;;;37.00;7.00;;;;;;;;;;5122429;28;20032;-58
2024/04/05 03:50:47;;;;;;;40.33;5.50;;;;;;;;;;5135425;28;20238;-57
2024/04/05 03:53:13;;;;;;;22.42;5.13;;;;;;;;;;5133440;28;20039;-57
2024/04/05 03:55:38;;;;;;;37.55;6.32;;;;;;;;;;5125079;28;20087;-58
2024/04/05 03:58:04;;;;;;;36.03;5.37;;;;;;;;;;5134896;28;20038;-59
2024/04/05 04:00:29;;;;;;;34.20;6.93;;;;;;;;;;5139754;28;20093;-60
2024/04/05 04:02:55;;;;;;;30.20;6.18;;;;;;;;;;5129254;28;20057;-57
2024/04/05 04:05:20;;;;;;;28.80;6.03;;;;;;;;;;5134152;28;20062;-60
2024/04/05 04:07:46;;;;;;;28.50;6.00;;;;;;;;;;5133399;28;20427;-59
2024/04/05 04:10:12;;;;;;;47.90;6.55;;;;;;;;;;5139286;28;20024;-60
2024/04/05 04:12:38;;;;;;;37.50;7.03;;;;;;;;;;5131648;28;20046;-61
2024/04/05 04:15:04;;;;;;;27.20;6.75;;;;;;;;;;5136177;28;20101;-59
2024/04/05 04:17:30;;;;;;;;;;;;;;;;;;5139196;28;20047;-60
2024/04/05 04:19:59;;;;;;;27.90;5.33;;;;;;;;;;5139164;28;19929;-59
2024/04/05 04:22:24;;;;;;;42.17;6.83;;;;;;;;;;5138566;28;20027;-59
2024/04/05 04:24:50;;;;;;;27.58;6.30;;;;;;;;;;5125731;28;20363;-60
2024/04/05 04:27:16;;;;;;;32.75;6.90;;;;;;;;;;5130364;28;20035;-59
2024/04/05 04:29:41;;;;;;;31.13;6.63;;;;;;;;;;5138837;28;20027;-60
2024/04/05 04:32:07;;;;;;;31.98;6.18;;;;;;;;;;5119346;28;20069;-60
2024/04/05 04:34:32;;;;;;;36.05;6.93;;;;;;;;;;5138178;28;20035;-59
2024/04/05 04:36:58;;;;;;;34.53;6.65;;;;;;;;;;5128010;28;20064;-59
2024/04/05 04:39:24;;;;;;;30.55;5.90;;;;;;;;;;5132081;28;20027;-59
2024/04/05 04:41:50;;;;;;;26.63;5.43;;;;;;;;;;5133400;28;20024;-59
2024/04/05 04:44:15;;;;;;;40.92;6.32;;;;;;;;;;5131582;28;20027;-59
2024/04/05 04:46:40;;;;;;;40.60;6.93;;;;;;;;;;5133881;28;20094;-58
2024/04/05 04:49:06;;;;;;;33.58;6.78;;;;;;;;;;5131992;28;20035;-60
2024/04/05 04:51:32;;;;;;;29.17;7.25;;;;;;;;;;5101603;28;20043;-61
2024/04/05 04:53:59;;;;;;;26.60;5.82;;;;;;;;;;5126932;28;20028;-60
2024/04/05 04:56:30;;;;;;;34.27;6.93;;;;;;;;;;5131696;28;20039;-61
2024/04/05 04:58:56;;;;;;;19.27;5.83;;;;;;;;;;5132111;28;20272;-60
2024/04/05 05:01:22;;;;;;;44.30;7.63;;;;;;;;;;5137935;28;20251;-57
2024/04/05 05:03:48;;;;;;;24.37;5.73;;;;;;;;;;5131484;28;20259;-60
2024/04/05 05:06:13;;;;;;;23.85;6.00;;;;;;;;;;5138458;28;20020;-60
2024/04/05 05:08:39;;;;;;;27.08;6.03;;;;;;;;;;5138093;28;20047;-59
2024/04/05 05:11:05;;;;;;;32.10;6.50;;;;;;;;;;5137592;28;20054;-59
2024/04/05 05:13:32;;;;;;;39.40;6.30;;;;;;;;;;5133927;28;20036;-60
2024/04/05 05:15:58;;;;;;;23.85;6.43;;;;;;;;;;5135713;28;20283;-61
2024/04/05 05:18:23;;;;;;;28.17;6.65;;;;;;;;;;5132968;28;20042;-59
2024/04/05 05:20:49;;;;;;;25.10;5.50;;;;;;;;;;5131733;28;20044;-60
2024/04/05 05:23:15;;;;;;;;;;;;;;;;;;5133483;28;20036;-58
2024/04/05 05:25:42;;;;;;;19.83;5.50;;;;;;;;;;5110148;28;19914;-60
2024/04/05 05:28:09;;;;;;;24.00;5.43;;;;;;;;;;5103596;28;20036;-59
2024/04/05 05:30:34;;;;;;;30.08;6.80;;;;;;;;;;5137166;28;20290;-60
2024/04/05 05:33:00;;;;;;;30.20;6.38;;;;;;;;;;5137492;28;20063;-60
2024/04/05 05:35:25;;;;;;;29.00;5.07;;;;;;;;;;5133203;28;20024;-58
2024/04/05 05:37:51;;;;;;;24.55;5.80;;;;;;;;;;5132071;28;20091;-59
2024/04/05 05:40:16;;;;;;;40.00;6.67;;;;;;;;;;5128208;28;20035;-58
2024/04/05 05:42:41;;;;;;;17.83;5.03;;;;;;;;;;5128887;28;20057;-61
2024/04/05 05:45:07;;;;;;;23.07;5.37;;;;;;;;;;5127356;28;20027;-57
2024/04/05 05:47:32;;;;;;;29.30;5.75;;;;;;;;;;5119561;28;20034;-58
2024/04/05 05:49:58;;;;;;;32.00;6.60;;;;;;;;;;5137362;28;20113;-57
2024/04/05 05:52:23;;;;;;;32.75;6.30;;;;;;;;;;5130998;28;20027;-58
2024/04/05 05:54:49;;;;;;;28.57;6.13;;;;;;;;;;5134708;28;20065;-58
2024/04/05 05:57:15;;;;;;;25.95;7.22;;;;;;;;;;5131669;28;20053;-58
2024/04/05 05:59:40;;;;;;;34.03;6.75;;;;;;;;;;5137089;28;20047;-60
2024/04/05 06:02:06;;;;;;;28.80;6.55;;;;;;;;;;5133671;28;20048;-59
2024/04/05 06:04:32;;;;;;;23.23;6.15;;;;;;;;;;5130718;28;20028;-59
2024/04/05 06:06:58;;;;;;;21.77;6.50;;;;;;;;;;5132511;28;20036;-59
2024/04/05 06:09:23;;;;;;;19.65;5.18;;;;;;;;;;5131827;28;20046;-59
2024/04/05 06:11:50;;;;;;;23.13;5.90;;;;;;;;;;5136356;28;20019;-58
2024/04/05 06:14:17;;;;;;;23.67;5.53;;;;;;;;;;5116000;28;20091;-55
2024/04/05 06:16:42;;;;;;;27.02;5.20;;;;;;;;;;5130277;28;20287;-59
2024/04/05 06:19:08;;;;;;;19.70;5.40;;;;;;;;;;5130057;28;20099;-57
2024/04/05 06:21:34;;;;;;;22.20;5.55;;;;;;;;;;5135991;28;20020;-58
2024/04/05 06:23:59;;;;;;;22.05;5.38;;;;;;;;;;5118114;28;20038;-59
2024/04/05 06:26:25;;;;;;;28.20;6.10;;;;;;;;;;5132948;28;20046;-59
2024/04/05 06:28:50;;;;;;;24.15;5.57;;;;;;;;;;5128304;28;20047;-59
2024/04/05 06:31:17;;;;;;;30.83;7.18;;;;;;;;;;5136792;28;20028;-58
2024/04/05 06:33:42;;;;;;;22.70;5.00;;;;;;;;;;5132726;28;20049;-58
2024/04/05 06:36:09;;;;;;;17.27;5.18;;;;;;;;;;5113914;28;20279;-57
2024/04/05 06:38:34;;;;;;;25.75;6.70;;;;;;;;;;5110925;28;20028;-59
2024/04/05 06:41:01;;;;;;;28.15;6.32;;;;;;;;;;5136370;28;20079;-60
2024/04/05 06:43:30;;;;;;;19.83;5.93;;;;;;;;;;5130643;28;20058;-58
2024/04/05 06:45:57;;;;;;;21.43;5.63;;;;;;;;;;5134358;28;20362;-60
2024/04/05 06:48:23;;;;;;;27.17;5.80;;;;;;;;;;5136356;28;20248;-59
2024/04/05 06:50:48;;;;;;;26.27;4.93;;;;;;;;;;5136207;28;20306;-61
2024/04/05 06:53:21;;;;;;;18.83;4.38;;;;;;;;;;5132308;28;20024;-57
2024/04/05 06:55:53;;;;;;;22.77;5.20;;;;;;;;;;5135530;28;20028;-57
2024/04/05 06:58:19;;;;;;;18.87;3.97;;;;;;;;;;5128435;28;20268;-56
2024/04/05 07:00:45;;;;;;;18.27;4.63;;;;;;;;;;5135557;28;20272;-57
2024/04/05 07:03:12;;;;;;;;;;;;;;;;;;5136463;28;20043;-59
2024/04/05 07:05:38;;;;;;;21.97;5.67;;;;;;;;;;5135276;28;19911;-58
2024/04/05 07:08:04;;;;;;;16.30;4.97;;;;;;;;;;5131486;28;20259;-60
2024/04/05 07:10:30;;;;;;;19.27;5.30;;;;;;;;;;5135016;28;20271;-57
2024/04/05 07:12:56;;;;;;;25.45;5.85;;;;;;;;;;5128983;28;20019;-56
2024/04/05 07:15:22;;;;;;;16.38;5.03;;;;;;;;;;5125356;28;20028;-62
2024/04/05 07:17:48;;;;;;;25.98;5.38;;;;;;;;;;5130231;28;20058;-58
2024/04/05 07:20:26;;;;;;;20.48;4.60;;;;;;;;;;5131526;28;20015;-58
2024/04/05 07:22:53;;;;;;;23.77;6.07;;;;;;;;;;5129572;28;20035;-59
2024/04/05 07:25:20;;;;;;;18.33;4.95;;;;;;;;;;5111631;28;20269;-58
2024/04/05 07:27:49;;;;;;;19.90;5.03;;;;;;;;;;5125550;28;20091;-59
2024/04/05 07:30:15;;;;;;;16.70;5.40;;;;;;;;;;5133367;28;20267;-58
2024/04/05 07:32:41;;;;;;;24.20;5.70;;;;;;;;;;5129073;28;20264;-60
2024/04/05 07:35:07;;;;;;;18.25;4.88;;;;;;;;;;5132600;28;20046;-57
2024/04/05 07:37:33;;;;;;;12.32;4.82;;;;;;;;;;5135461;28;20040;-57
2024/04/05 07:39:59;;;;;;;14.43;4.00;;;;;;;;;;5135687;28;20051;-59
2024/04/05 07:42:26;;;;;;;14.27;5.00;;;;;;;;;;5125634;28;20024;-60
2024/04/05 07:44:56;;;;;;;13.63;3.80;;;;;;;;;;5132843;28;20024;-59
2024/04/05 07:47:22;;;;;;;20.13;5.30;;;;;;;;;;5129504;28;20028;-60
2024/04/05 07:49:51;;;;;;;17.15;4.50;;;;;;;;;;5134584;28;20038;-59
2024/04/05 07:52:17;;;;;;;13.40;4.53;;;;;;;;;;5135363;28;20028;-60
2024/04/05 07:54:45;;;;;;;12.57;4.00;;;;;;;;;;5134002;28;20055;-58
2024/04/05 07:57:11;;;;;;;13.30;3.90;;;;;;;;;;5131783;28;20032;-59
2024/04/05 07:59:36;;;;;;;25.08;6.50;;;;;;;;;;5122512;28;20036;-60
2024/04/05 08:02:02;;;;;;;16.93;4.60;;;;;;;;;;5135305;28;20035;-60
2024/04/05 08:04:28;;;;;;;20.77;5.22;;;;;;;;;;5124143;28;20031;-61
2024/04/05 08:06:57;;;;;;;22.42;4.90;;;;;;;;;;5133987;28;20039;-61
2024/04/05 08:09:23;;;;;;;20.47;5.60;;;;;;;;;;5125868;28;20035;-60
2024/04/05 08:11:48;;;;;;;11.10;4.90;;;;;;;;;;5134351;28;20276;-61
2024/04/05 08:14:14;;;;;;;19.08;5.53;;;;;;;;;;5129537;28;20028;-61
2024/04/05 08:16:39;;;;;;;20.80;6.25;;;;;;;;;;5134406;28;20036;-62
2024/04/05 08:19:05;;;;;;;21.40;5.80;;;;;;;;;;5131414;28;20077;-61
2024/04/05 08:21:31;;;;;;;20.67;7.30;;;;;;;;;;5134883;28;20023;-61
2024/04/05 08:23:57;;;;;;;23.52;6.10;;;;;;;;;;5126030;28;20294;-62
2024/04/05 08:26:23;;;;;;;19.02;6.38;;;;;;;;;;5134509;28;20056;-61
2024/04/05 08:28:48;;;;;;;21.80;5.77;;;;;;;;;;5134295;28;20053;-61
2024/04/05 08:31:15;;;;;;;20.33;5.17;;;;;;;;;;5135097;28;20043;-61
2024/04/05 08:33:41;;;;;;;28.03;5.67;;;;;;;;;;5123555;28;20267;-61
2024/04/05 08:36:07;;;;;;;21.23;6.15;;;;;;;;;;5115601;28;20034;-61
2024/04/05 08:38:32;;;;;;;11.88;4.40;;;;;;;;;;5134794;28;20032;-61
2024/04/05 08:40:58;;;;;;;18.10;4.70;;;;;;;;;;5135085;28;20041;-59
2024/04/05 08:43:26;;;;;;;22.80;4.72;;;;;;;;;;5134765;28;20027;-61
2024/04/05 08:45:51;;;;;;;15.13;3.80;;;;;;;;;;5129336;28;20024;-60
2024/04/05 08:48:19;;;;;;;11.60;3.85;;;;;;;;;;5134515;28;20075;-61
2024/04/05 08:50:46;;;;;;;8.80;4.00;;;;;;;;;;5132206;28;20032;-60
2024/04/05 08:53:11;;;;;;;13.20;3.55;;;;;;;;;;5134503;28;20046;-60
2024/04/05 08:55:38;;;;;;;9.75;3.92;;;;;;;;;;5130790;28;20027;-59
2024/04/05 08:58:06;;;;;;;11.00;2.90;;;;;;;;;;5137980;28;20024;-61
2024/04/05 09:00:31;;;;;;;19.50;3.63;;;;;;;;;;5131532;28;20031;-61
2024/04/05 09:02:59;;;;;;;10.35;2.65;;;;;;;;;;5119110;28;20268;-60
2024/04/05 09:05:24;;;;;;;21.40;3.90;;;;;;;;;;5128403;28;20039;-60
2024/04/05 09:08:01;;;;;;;17.60;3.80;;;;;;;;;;5122078;28;20044;-59
2024/04/05 09:10:26;;;;;;;17.35;3.85;;;;;;;;;;5120784;28;20054;-60
2024/04/05 09:12:54;;;;;;;17.85;3.53;;;;;;;;;;5120357;28;20129;-60
2024/04/05 09:15:21;;;;;;;15.70;4.27;;;;;;;;;;5136798;28;20070;-61
2024/04/05 09:17:47;;;;;;;14.80;4.67;;;;;;;;;;5134966;28;20299;-60
2024/04/05 09:20:19;;;;;;;12.88;4.50;;;;;;;;;;5133143;28;20264;-60
2024/04/05 09:22:46;;;;;;;11.97;4.17;;;;;;;;;;5137810;28;20040;-60
2024/04/05 09:25:12;;;;;;;12.83;3.43;;;;;;;;;;5136600;28;20260;-60
2024/04/05 09:27:38;;;;;;;13.83;3.33;;;;;;;;;;5126222;28;20324;-59
2024/04/05 09:30:05;;;;;;;8.75;3.15;;;;;;;;;;5122758;28;20264;-61
2024/04/05 09:32:31;;;;;;;14.47;3.77;;;;;;;;;;5137531;28;20032;-59
2024/04/05 09:34:57;;;;;;;12.98;3.80;;;;;;;;;;5136461;28;20270;-59
2024/04/05 09:37:26;;;;;;;13.45;3.70;;;;;;;;;;5129106;28;20055;-61
2024/04/05 09:39:54;;;;;;;17.10;3.57;;;;;;;;;;5127043;28;20030;-60
2024/04/05 09:42:23;;;;;;;15.23;3.50;;;;;;;;;;5137284;28;20343;-59
2024/04/05 09:44:58;;;;;;;17.73;4.10;;;;;;;;;;5137186;28;20252;-60
2024/04/05 09:47:25;;;;;;;16.43;4.70;;;;;;;;;;5136759;28;20343;-60
2024/04/05 09:49:51;;;;;;;15.63;3.57;;;;;;;;;;5130789;28;20252;-59
2024/04/05 09:52:24;;;;;;;16.98;3.50;;;;;;;;;;5137479;28;20264;-60
2024/04/05 09:54:54;;;;;;;17.60;4.17;;;;;;;;;;5135671;28;20053;-59
2024/04/05 09:57:20;;;;;;;13.13;4.13;;;;;;;;;;5133948;28;20351;-62
2024/04/05 09:59:48;;;;;;;12.07;3.65;;;;;;;;;;5126851;28;20283;-60
2024/04/05 10:02:17;;;;;;;15.57;3.57;;;;;;;;;;5136323;28;20020;-60
2024/04/05 10:04:44;;;;;;;15.77;3.70;;;;;;;;;;5129677;28;20287;-59
2024/04/05 10:07:11;;;;;;;15.15;3.70;;;;;;;;;;5135983;28;20264;-60
2024/04/05 10:09:37;;;;;;;14.83;3.40;;;;;;;;;;5129581;28;20039;-59
2024/04/05 10:12:11;;;;;;;5.35;3.30;;;;;;;;;;5135510;28;20028;-60
2024/04/05 10:14:36;;;;;;;17.33;3.93;;;;;;;;;;5126012;28;20095;-60
2024/04/05 10:17:09;;;;;;;9.88;3.22;;;;;;;;;;5121887;28;20040;-58
2024/04/05 10:19:38;;;;;;;9.53;3.30;;;;;;;;;;5123679;28;20024;-59
2024/04/05 10:22:04;;;;;;;15.77;3.00;;;;;;;;;;5134280;28;20019;-60
2024/04/05 10:24:29;;;;;;;8.77;2.60;;;;;;;;;;5126365;28;20028;-59
2024/04/05 10:26:56;;;;;;;9.68;2.63;;;;;;;;;;5133527;28;20035;-60
2024/04/05 10:29:22;;;;;;;14.80;3.20;;;;;;;;;;5136278;28;20047;-59
2024/04/05 10:31:48;;;;;;;6.15;2.00;;;;;;;;;;5136471;28;20032;-60
2024/04/05 10:34:22;;;;;;;13.25;2.63;;;;;;;;;;5136425;28;20035;-59
2024/04/05 10:36:47;;;;;;;7.63;2.17;;;;;;;;;;5108837;28;20040;-60
2024/04/05 10:39:19;;;;;;;4.97;2.13;;;;;;;;;;5135423;28;20083;-59
2024/04/05 10:41:45;;;;;;;5.53;2.07;;;;;;;;;;5131970;28;20032;-60
2024/04/05 10:44:11;;;;;;;11.75;2.05;;;;;;;;;;5125433;28;20066;-58
2024/04/05 10:46:37;;;;;;;7.47;1.98;;;;;;;;;;5135551;28;20027;-59
2024/04/05 10:49:02;;;;;;;3.95;2.15;;;;;;;;;;5128470;28;20039;-58
2024/04/05 10:51:28;;;;;;;;;;;;;;;;;;5136491;28;20046;-60
2024/04/05 10:53:54;;;;;;;5.68;2.22;;;;;;;;;;5132541;28;19908;-59
2024/04/05 10:56:20;;;;;;;7.85;2.53;;;;;;;;;;5134215;28;20040;-57
2024/04/05 10:58:46;;;;;;;7.35;1.70;;;;;;;;;;5129452;28;20027;-56
2024/04/05 11:01:13;;;;;;;8.60;1.80;;;;;;;;;;5134728;28;20059;-58
2024/04/05 11:03:38;;;;;;;5.20;2.03;;;;;;;;;;5134238;28;20039;-58
2024/04/05 11:06:04;;;;;;;9.48;2.33;;;;;;;;;;5131594;28;20032;-58
2024/04/05 11:08:30;;;;;;;7.13;1.90;;;;;;;;;;5124821;28;20054;-56
2024/04/05 11:10:56;;;;;;;6.67;1.80;;;;;;;;;;5133734;28;20051;-58
2024/04/05 11:13:22;;;;;;;6.18;1.50;;;;;;;;;;5135540;28;20031;-59
2024/04/05 11:15:47;;;;;;;5.60;1.52;;;;;;;;;;5135407;28;20038;-59
2024/04/05 11:18:13;;;;;;;6.43;1.80;;;;;;;;;;5135259;28;20036;-58
2024/04/05 11:20:42;;;;;;;6.30;2.05;;;;;;;;;;5135335;28;20027;-58
2024/04/05 11:23:14;;;;;;;8.80;2.33;;;;;;;;;;5127404;28;20051;-57
2024/04/05 11:25:40;;;;;;;6.77;1.90;;;;;;;;;;5134075;28;20083;-59
2024/04/05 11:28:12;;;;;;;6.80;2.33;;;;;;;;;;5129697;28;20031;-57
2024/04/05 11:30:39;;;;;;;6.60;1.80;;;;;;;;;;5125442;28;20043;-59
2024/04/05 11:33:05;;;;;;;7.37;2.13;;;;;;;;;;5135197;28;20039;-59
2024/04/05 11:35:31;;;;;;;12.57;2.13;;;;;;;;;;5127782;28;20023;-57
2024/04/05 11:37:56;;;;;;;7.18;2.15;;;;;;;;;;5132372;28;20042;-58
2024/04/05 11:40:22;;;;;;;6.13;1.80;;;;;;;;;;5110975;28;20030;-57
2024/04/05 11:42:47;;;;;;;6.80;2.40;;;;;;;;;;5135352;28;20135;-57
2024/04/05 11:45:13;;;;;;;4.57;1.58;;;;;;;;;;5130539;28;20023;-57
2024/04/05 11:47:38;;;;;;;5.20;1.97;;;;;;;;;;5117112;28;20047;-58
2024/04/05 11:50:04;;;;;;;4.57;2.08;;;;;;;;;;5128234;28;20027;-58
2024/04/05 11:52:33;;;;;;;9.35;2.17;;;;;;;;;;5134918;28;20040;-57
2024/04/05 11:54:58;;;;;;;8.97;2.20;;;;;;;;;;5135290;28;20032;-57
2024/04/05 11:57:24;;;;;;;15.05;2.13;;;;;;;;;;5134383;28;20063;-57
2024/04/05 11:59:50;;;;;;;4.33;2.10;;;;;;;;;;5135124;28;20031;-57
2024/04/05 12:02:15;;;;;;;8.35;2.47;;;;;;;;;;5135105;28;20437;-56
2024/04/05 12:04:40;;;;;;;9.07;2.97;;;;;;;;;;5134457;28;20031;-57
2024/04/05 12:07:09;;;;;;;5.23;2.13;;;;;;;;;;5127431;28;20039;-58
2024/04/05 12:09:35;;;;;;;6.77;2.40;;;;;;;;;;5132280;28;20034;-58
2024/04/05 12:12:00;;;;;;;4.20;1.52;;;;;;;;;;5130105;28;20029;-58
2024/04/05 12:14:26;;;;;;;7.70;2.25;;;;;;;;;;5131027;28;20056;-57
2024/04/05 12:16:52;;;;;;;11.73;2.20;;;;;;;;;;5128396;28;20035;-56
2024/04/05 12:19:17;;;;;;;11.93;1.93;;;;;;;;;;5132902;28;20091;-58
2024/04/05 12:21:42;;;;;;;5.87;2.10;;;;;;;;;;5132583;28;20071;-57
2024/04/05 12:24:07;;;;;;;5.30;2.50;;;;;;;;;;5138942;28;20045;-58
2024/04/05 12:26:32;;;;;;;6.37;2.20;;;;;;;;;;5107015;28;20039;-57
2024/04/05 12:28:58;;;;;;;5.43;2.07;;;;;;;;;;5120996;28;20028;-59
2024/04/05 12:31:24;;;;;;;8.40;2.47;;;;;;;;;;5138835;28;20054;-58
2024/04/05 12:33:49;;;;;;;9.53;2.50;;;;;;;;;;5138876;28;20063;-58
2024/04/05 12:36:17;;;;;;;5.13;2.43;;;;;;;;;;5126870;28;20035;-58
2024/04/05 12:38:44;;;;;;;6.97;2.33;;;;;;;;;;5126532;28;20027;-59
2024/04/05 12:41:09;;;;;;;6.17;2.10;;;;;;;;;;5138502;28;20053;-59
2024/04/05 12:43:34;;;;;;;7.70;2.23;;;;;;;;;;5138669;28;20035;-56
2024/04/05 12:46:04;;;;;;;7.85;2.25;;;;;;;;;;5131916;28;20024;-56
2024/04/05 12:48:30;;;;;;;5.90;2.40;;;;;;;;;;5137822;28;20047;-58
2024/04/05 12:50:56;;;;;;;9.95;2.30;;;;;;;;;;5127196;28;20088;-59
2024/04/05 12:53:21;;;;;;;7.20;2.13;;;;;;;;;;5138681;28;20051;-57
2024/04/05 12:55:57;;;;;;;7.38;2.08;;;;;;;;;;5138112;28;20057;-57
2024/04/05 12:58:30;;;;;;;6.73;2.10;;;;;;;;;;5113096;28;20035;-59
2024/04/05 13:00:56;;;;;;;7.40;2.43;;;;;;;;;;5137959;28;20024;-58
2024/04/05 13:03:23;;;;;;;6.47;1.97;;;;;;;;;;5138067;28;20031;-55
2024/04/05 13:05:48;;;;;;;6.57;2.10;;;;;;;;;;5137618;28;20028;-59
2024/04/05 13:08:13;;;;;;;9.17;1.83;;;;;;;;;;5115961;28;20066;-59
2024/04/05 13:10:39;;;;;;;7.95;2.03;;;;;;;;;;5137847;28;20118;-57
2024/04/05 13:13:05;;;;;;;4.10;1.73;;;;;;;;;;5129550;28;20039;-58
2024/04/05 13:15:35;;;;;;;4.95;1.88;;;;;;;;;;5136213;28;20058;-57
2024/04/05 13:18:00;;;;;;;5.33;1.80;;;;;;;;;;5135364;28;20030;-57
2024/04/05 13:20:26;;;;;;;5.38;1.52;;;;;;;;;;5135823;28;20079;-59
2024/04/05 13:22:52;;;;;;;7.73;1.97;;;;;;;;;;5137820;28;20042;-58
2024/04/05 13:25:19;;;;;;;6.50;1.80;;;;;;;;;;5134889;28;20054;-59
2024/04/05 13:27:46;;;;;;;4.07;1.57;;;;;;;;;;5134426;28;20008;-57
2024/04/05 13:30:11;;;;;;;;;;;;;;;;;;5137504;28;20035;-57
2024/04/05 13:32:37;;;;;;;7.90;1.77;;;;;;;;;;5120020;28;19911;-57
2024/04/05 13:35:03;;;;;;;4.72;1.70;;;;;;;;;;5137405;28;20070;-60
2024/04/05 13:37:29;;;;;;;8.57;2.13;;;;;;;;;;5111353;28;20727;-60
2024/04/05 13:39:54;;;;;;;6.90;1.95;;;;;;;;;;5136672;28;20051;-59
2024/04/05 13:42:19;;;;;;;;;;;;;;;;;;5137199;28;20046;-59
2024/04/05 13:44:45;;;;;;;8.62;1.74;;;;;;;;;;5131674;28;19904;-58
2024/04/05 13:47:10;;;;;;;7.00;1.60;;;;;;;;;;5130476;28;20039;-56
2024/04/05 13:49:36;;;;;;;;;;;;;;;;;;5137858;28;20035;-59
2024/04/05 13:52:02;;;;;;;7.00;1.87;;;;;;;;;;5137359;28;19974;-57
2024/04/05 13:54:28;;;;;;;5.03;1.90;;;;;;;;;;5119396;28;20032;-59
2024/04/05 13:56:53;;;;;;;;;;;;;;;;;;5136479;28;20100;-60
2024/04/05 13:59:20;;;;;;;9.17;3.20;;;;;;;;;;5131922;28;19915;-59
2024/04/05 14:01:46;;;;;;;6.85;1.90;;;;;;;;;;5126642;28;20034;-60
2024/04/05 14:04:11;;;;;;;;;;;;;;;;;;5137189;28;20036;-59
2024/04/05 14:06:37;;;;;;;5.57;1.60;;;;;;;;;;5130252;28;19912;-60
2024/04/05 14:09:04;;;;;;;;;;;;;;;;;;5118568;28;20046;-60
2024/04/05 14:11:29;;;;;;;9.32;2.00;;;;;;;;;;5136867;28;19934;-60
2024/04/05 14:13:55;;;;;;;6.40;2.10;;;;;;;;;;5136796;28;20039;-60
2024/04/05 14:16:22;;;;;;;6.55;1.77;;;;;;;;;;5136260;28;20065;-60
2024/04/05 14:18:52;;;;;;;;;;;;;;;;;;5136244;28;20051;-60
2024/04/05 14:21:18;;;;;;;3.10;1.50;;;;;;;;;;5132160;28;20304;-59
2024/04/05 14:23:44;;;;;;;5.40;1.80;;;;;;;;;;5136808;28;20030;-61
2024/04/05 14:26:10;;;;;;;10.50;1.70;;;;;;;;;;5131157;28;20027;-60
2024/04/05 14:28:36;;;;;;;3.78;1.38;;;;;;;;;;5136051;28;20066;-60
2024/04/05 14:31:03;;;;;;;6.43;2.10;;;;;;;;;;5131165;28;20024;-60